Time;durP1;ratioP1;P1;durP2;ratioP2;P2;SDS_P1;SDS_P2;PMS_P1;PMS_P2;Temp;Humidity;BMP_temperature;BMP_pressure;BME280_temperature;BME280_humidity;BME280_pressure;Samples;Min_cycle;Max_cycle;Signal;HPM_P1;HPM_P2
2022/11/13 00:00:29;;;;;;;7.18;5.53;;;0.80;99.90;;;;;;4675872;30;20050;-79
2022/11/13 00:03:15;;;;;;;6.43;5.82;;;0.70;99.90;;;;;;4666439;30;20054;-79
2022/11/13 00:06:02;;;;;;;17.63;5.95;;;0.70;99.90;;;;;;4682310;30;20405;-79
2022/11/13 00:08:53;;;;;;;6.63;4.72;;;0.70;99.90;;;;;;4666659;30;20058;-79
2022/11/13 00:11:39;;;;;;;8.82;6.82;;;0.50;99.90;;;;;;4666405;30;20580;-79
2022/11/13 00:14:25;;;;;;;8.88;6.22;;;0.50;99.90;;;;;;4669544;30;20069;-79
2022/11/13 00:17:11;;;;;;;5.47;5.03;;;0.40;99.90;;;;;;4639497;30;20097;-79
2022/11/13 00:19:57;;;;;;;7.90;6.32;;;0.30;99.90;;;;;;4663861;30;20062;-79
2022/11/13 00:22:43;;;;;;;14.00;6.82;;;0.40;99.90;;;;;;4664927;30;20069;-79
2022/11/13 00:25:29;;;;;;;12.13;5.22;;;0.30;99.90;;;;;;4665351;30;20058;-79
2022/11/13 00:28:15;;;;;;;7.00;6.05;;;0.30;99.90;;;;;;4664598;30;20055;-79
2022/11/13 00:31:02;;;;;;;7.85;6.28;;;0.30;99.90;;;;;;4665149;30;20058;-79
2022/11/13 00:33:49;;;;;;;7.78;4.95;;;0.30;99.90;;;;;;4672034;30;20071;-79
2022/11/13 00:36:55;;;;;;;5.25;4.60;;;0.30;99.90;;;;;;4670962;30;20505;-79
2022/11/13 00:39:41;;;;;;;9.70;5.65;;;0.30;99.90;;;;;;4681829;30;20058;-79
2022/11/13 00:42:27;;;;;;;10.45;7.05;;;0.20;99.90;;;;;;4681092;30;20054;-79
2022/11/13 00:45:13;;;;;;;7.55;5.57;;;0.20;99.90;;;;;;4679875;30;20065;-79
2022/11/13 00:48:06;;;;;;;8.82;6.60;;;0.10;99.90;;;;;;4681605;30;20050;-79
2022/11/13 00:50:52;;;;;;;5.70;5.15;;;0.00;99.90;;;;;;4680773;30;20065;-79
2022/11/13 00:53:38;;;;;;;12.45;5.28;;;0.00;99.90;;;;;;4682203;30;20510;-79
2022/11/13 00:56:24;;;;;;;6.03;5.53;;;0.00;99.90;;;;;;4680483;30;20533;-79
2022/11/13 00:59:10;;;;;;;5.80;4.75;;;0.00;99.90;;;;;;4680822;30;20506;-79
2022/11/13 01:01:56;;;;;;;18.52;6.88;;;0.00;99.90;;;;;;4682174;30;20065;-79
2022/11/13 01:04:42;;;;;;;7.53;6.82;;;0.10;99.90;;;;;;4681613;30;20061;-79
2022/11/13 01:07:28;;;;;;;5.80;5.30;;;0.10;99.90;;;;;;4680589;30;20061;-79
2022/11/13 01:10:14;;;;;;;6.22;5.63;;;0.10;99.90;;;;;;4677959;30;20099;-79
2022/11/13 01:13:00;;;;;;;6.00;5.43;;;0.20;99.90;;;;;;4663398;30;20070;-79
2022/11/13 01:15:46;;;;;;;32.60;6.93;;;0.10;99.90;;;;;;4664376;30;20062;-79
2022/11/13 01:18:32;;;;;;;6.15;5.53;;;0.20;99.90;;;;;;4668611;30;20081;-79
2022/11/13 01:21:21;;;;;;;7.93;6.85;;;0.20;99.90;;;;;;4669299;30;20070;-79
2022/11/13 01:24:07;;;;;;;7.20;5.82;;;0.20;99.90;;;;;;4671771;30;20054;-79
2022/11/13 01:26:53;;;;;;;6.53;5.93;;;0.20;99.90;;;;;;4670419;30;20509;-79
2022/11/13 01:29:39;;;;;;;31.00;6.18;;;0.30;99.90;;;;;;4672015;30;20061;-78
2022/11/13 01:32:25;;;;;;;10.45;6.72;;;0.30;99.90;;;;;;4671458;30;20750;-79
2022/11/13 01:35:11;;;;;;;15.20;9.13;;;0.40;99.90;;;;;;4684307;30;20050;-79
2022/11/13 01:37:57;;;;;;;11.93;6.70;;;0.30;99.90;;;;;;4684783;30;20061;-79
2022/11/13 01:40:47;;;;;;;7.68;5.68;;;0.40;99.90;;;;;;4684168;30;20061;-79
2022/11/13 01:43:37;;;;;;;19.83;6.95;;;0.30;99.90;;;;;;4684310;30;20414;-79
2022/11/13 01:46:42;;;;;;;6.88;6.20;;;0.40;99.90;;;;;;4684256;30;20065;-79
2022/11/13 01:49:36;;;;;;;13.05;6.55;;;0.30;99.90;;;;;;4669876;30;20057;-79
2022/11/13 01:52:37;;;;;;;7.28;6.45;;;0.30;99.90;;;;;;4683940;30;20521;-79
2022/11/13 01:55:23;;;;;;;12.90;6.07;;;0.30;99.90;;;;;;4683143;30;20817;-79
2022/11/13 01:58:10;;;;;;;22.17;5.65;;;0.30;99.90;;;;;;4684295;30;20603;-79
2022/11/13 02:00:56;;;;;;;7.35;6.20;;;0.30;99.90;;;;;;4698601;30;20067;-79
2022/11/13 02:03:42;;;;;;;6.70;5.63;;;0.20;99.90;;;;;;4701111;30;20088;-79
2022/11/13 02:06:35;;;;;;;11.10;4.80;;;0.20;99.90;;;;;;4701479;30;20060;-79
2022/11/13 02:09:34;;;;;;;7.55;5.90;;;0.20;99.90;;;;;;4686300;30;20069;-79
2022/11/13 02:12:38;;;;;;;12.38;5.53;;;0.30;99.90;;;;;;4700910;30;20064;-79
2022/11/13 02:15:27;;;;;;;7.38;6.60;;;0.40;99.90;;;;;;4700969;30;20057;-79
2022/11/13 02:18:14;;;;;;;45.58;6.80;;;0.50;99.90;;;;;;4687896;30;20053;-79
2022/11/13 02:21:09;;;;;;;11.35;5.28;;;0.60;99.90;;;;;;4700936;30;20501;-79
2022/11/13 02:24:13;;;;;;;35.92;8.57;;;0.70;99.90;;;;;;4700517;30;20068;-78
2022/11/13 02:27:03;;;;;;;10.10;5.65;;;0.80;99.90;;;;;;4699941;30;20045;-79
2022/11/13 02:29:49;;;;;;;16.45;5.78;;;1.00;99.90;;;;;;4701155;30;20054;-79
2022/11/13 02:32:34;;;;;;;16.75;6.55;;;1.00;99.90;;;;;;4700867;30;20080;-79
2022/11/13 02:35:25;;;;;;;8.18;5.63;;;1.10;99.90;;;;;;4683217;30;20058;-79
2022/11/13 02:38:11;;;;;;;8.27;5.53;;;1.10;99.90;;;;;;4683676;30;20064;-78
2022/11/13 02:40:57;;;;;;;21.73;5.90;;;1.10;99.90;;;;;;4683184;30;20425;-79
2022/11/13 02:43:43;;;;;;;44.63;9.27;;;1.20;99.90;;;;;;4667303;30;20678;-79
2022/11/13 02:46:29;;;;;;;19.17;7.25;;;1.20;99.90;;;;;;4668142;30;20054;-79
2022/11/13 02:49:19;;;;;;;43.80;7.43;;;1.20;99.90;;;;;;4653112;30;20114;-79
2022/11/13 02:52:05;;;;;;;5.53;5.05;;;1.20;99.90;;;;;;4672542;30;20061;-78
2022/11/13 02:54:50;;;;;;;20.23;6.25;;;1.20;99.90;;;;;;4684667;30;20072;-79
2022/11/13 02:57:36;;;;;;;43.85;6.32;;;1.20;99.90;;;;;;4687172;30;20056;-79
2022/11/13 03:00:23;;;;;;;6.20;5.47;;;1.20;99.90;;;;;;4700188;30;20049;-79
2022/11/13 03:03:08;;;;;;;19.95;5.85;;;1.20;99.90;;;;;;4699965;30;20499;-78
2022/11/13 03:05:55;;;;;;;11.90;6.18;;;1.20;99.90;;;;;;4700444;30;20053;-79
2022/11/13 03:08:41;;;;;;;16.75;5.88;;;1.20;99.90;;;;;;4699897;30;20049;-79
2022/11/13 03:11:27;;;;;;;10.98;5.32;;;1.20;99.90;;;;;;4699656;30;20070;-79
2022/11/13 03:14:13;;;;;;;20.30;5.15;;;1.20;99.90;;;;;;4700177;30;20064;-79
2022/11/13 03:16:59;;;;;;;10.90;5.43;;;1.20;99.90;;;;;;4699722;30;20061;-79
2022/11/13 03:19:48;;;;;;;19.92;5.72;;;1.30;99.90;;;;;;4699726;30;20057;-79
2022/11/13 03:22:35;;;;;;;5.13;4.63;;;1.30;99.90;;;;;;4684579;30;20053;-79
2022/11/13 03:25:21;;;;;;;39.70;5.20;;;1.30;99.90;;;;;;4684449;30;20417;-79
2022/11/13 03:28:07;;;;;;;11.38;5.20;;;1.40;99.90;;;;;;4699255;30;20071;-79
2022/11/13 03:30:53;;;;;;;11.75;5.43;;;1.30;99.90;;;;;;4699648;30;20050;-79
2022/11/13 03:33:39;;;;;;;9.55;4.45;;;1.40;99.90;;;;;;4700089;30;20057;-79
2022/11/13 03:36:25;;;;;;;12.75;5.75;;;1.40;99.90;;;;;;4699493;30;20056;-79
2022/11/13 03:39:11;;;;;;;30.70;6.90;;;1.30;99.90;;;;;;4699591;30;20409;-79
2022/11/13 03:41:57;;;;;;;9.80;5.13;;;1.30;99.90;;;;;;4699444;30;20053;-79
2022/11/13 03:44:43;;;;;;;11.63;5.18;;;1.30;99.90;;;;;;4699562;30;20057;-79
2022/11/13 03:47:29;;;;;;;30.33;5.18;;;1.40;99.90;;;;;;4684096;30;20065;-79
2022/11/13 03:50:15;;;;;;;97.13;10.20;;;1.40;99.90;;;;;;4699568;30;20057;-79
2022/11/13 03:53:01;;;;;;;16.63;6.45;;;1.40;99.90;;;;;;4699314;30;20049;-79
2022/11/13 03:55:47;;;;;;;46.80;4.90;;;1.30;99.90;;;;;;4699241;30;20060;-79
2022/11/13 03:58:33;;;;;;;42.15;7.60;;;1.30;99.90;;;;;;4699256;30;20064;-79
2022/11/13 04:01:24;;;;;;;;;;;1.30;99.90;;;;;;4657024;30;20054;-79
2022/11/13 04:04:10;;;;;;;18.55;4.35;;;1.30;99.90;;;;;;4682161;30;19927;-78
2022/11/13 04:06:56;;;;;;;27.23;5.18;;;1.30;99.90;;;;;;4681737;30;20061;-79
2022/11/13 04:09:42;;;;;;;17.98;5.30;;;1.20;99.90;;;;;;4682628;30;20057;-79
2022/11/13 04:12:28;;;;;;;4.90;4.35;;;1.20;99.90;;;;;;4666393;30;20406;-79
2022/11/13 04:15:15;;;;;;;25.98;6.63;;;1.20;99.90;;;;;;4681887;30;20054;-79
2022/11/13 04:18:00;;;;;;;32.80;6.50;;;1.10;99.90;;;;;;4666859;30;20058;-79
2022/11/13 04:20:46;;;;;;;22.23;7.20;;;1.10;99.90;;;;;;4668937;30;20058;-79
2022/11/13 04:23:33;;;;;;;5.10;4.20;;;1.10;99.90;;;;;;4681699;30;20050;-79
2022/11/13 04:26:19;;;;;;;51.60;5.68;;;1.10;99.90;;;;;;4681205;30;20054;-79
2022/11/13 04:29:05;;;;;;;12.07;4.90;;;1.10;99.90;;;;;;4681335;30;20054;-79
2022/11/13 04:31:51;;;;;;;15.20;5.53;;;1.10;99.90;;;;;;4681994;30;20054;-79
2022/11/13 04:34:37;;;;;;;12.25;5.70;;;1.10;99.90;;;;;;4693352;30;20060;-79
2022/11/13 04:37:23;;;;;;;35.65;4.78;;;1.00;99.90;;;;;;4699009;30;20394;-78
2022/11/13 04:40:09;;;;;;;16.42;5.07;;;1.00;99.90;;;;;;4698576;30;20061;-78
2022/11/13 04:42:55;;;;;;;8.38;4.93;;;1.00;99.90;;;;;;4698666;30;20053;-79
2022/11/13 04:45:41;;;;;;;10.25;4.55;;;1.00;99.90;;;;;;4699197;30;20050;-79
2022/11/13 04:48:27;;;;;;;4.25;3.88;;;1.00;99.90;;;;;;4698791;30;20058;-79
2022/11/13 04:51:14;;;;;;;14.75;4.47;;;1.00;99.90;;;;;;4698956;30;20057;-79
2022/11/13 04:54:00;;;;;;;6.90;5.18;;;1.00;99.90;;;;;;4701392;30;20065;-79
2022/11/13 04:56:46;;;;;;;5.60;3.92;;;0.90;99.90;;;;;;4702090;30;20045;-79
2022/11/13 04:59:32;;;;;;;20.20;5.28;;;1.00;99.90;;;;;;4702083;30;20053;-79
2022/11/13 05:02:18;;;;;;;5.63;5.00;;;0.90;99.90;;;;;;4702842;30;20061;-79
2022/11/13 05:05:04;;;;;;;7.20;3.92;;;0.90;99.90;;;;;;4701719;30;20061;-79
2022/11/13 05:07:51;;;;;;;8.07;5.43;;;0.90;99.90;;;;;;4701703;30;20517;-79
2022/11/13 05:10:37;;;;;;;16.90;5.07;;;0.90;99.90;;;;;;4689333;30;20053;-79
2022/11/13 05:13:23;;;;;;;5.30;3.78;;;0.90;99.90;;;;;;4699982;30;20065;-79
2022/11/13 05:16:12;;;;;;;4.93;4.43;;;0.90;99.90;;;;;;4701891;30;20050;-79
2022/11/13 05:18:58;;;;;;;4.32;3.92;;;0.80;99.90;;;;;;4701226;30;20528;-79
2022/11/13 05:21:44;;;;;;;8.38;6.20;;;0.80;99.90;;;;;;4702251;30;20054;-79
2022/11/13 05:24:30;;;;;;;23.23;4.50;;;0.90;99.90;;;;;;4701758;30;20053;-78
2022/11/13 05:27:16;;;;;;;23.80;6.45;;;0.80;99.90;;;;;;4700254;30;20058;-79
2022/11/13 05:30:03;;;;;;;23.08;5.82;;;0.80;99.90;;;;;;4702293;30;20572;-79
2022/11/13 05:32:49;;;;;;;9.98;4.45;;;0.80;99.90;;;;;;4688511;30;20069;-79
2022/11/13 05:35:35;;;;;;;37.88;5.40;;;0.80;99.90;;;;;;4701707;30;20429;-79
2022/11/13 05:38:21;;;;;;;5.85;4.05;;;0.80;99.90;;;;;;4688428;30;20058;-79
2022/11/13 05:41:19;;;;;;;20.42;6.20;;;0.70;99.90;;;;;;4701172;30;20049;-79
2022/11/13 05:44:06;;;;;;;26.15;4.80;;;0.70;99.90;;;;;;4701381;30;20050;-79
2022/11/13 05:46:52;;;;;;;17.60;4.55;;;0.60;99.90;;;;;;4687955;30;20069;-79
2022/11/13 05:49:38;;;;;;;28.02;5.68;;;0.60;99.90;;;;;;4701831;30;20064;-78
2022/11/13 05:52:24;;;;;;;30.20;5.30;;;0.50;99.90;;;;;;4701054;30;20084;-79
2022/11/13 05:55:10;;;;;;;12.00;3.97;;;0.60;99.90;;;;;;4701289;30;20080;-79
2022/11/13 05:57:57;;;;;;;25.67;4.05;;;0.50;99.90;;;;;;4701356;30;20053;-78
2022/11/13 06:00:43;;;;;;;6.05;3.97;;;0.50;99.90;;;;;;4687071;30;20050;-78
2022/11/13 06:03:29;;;;;;;12.95;4.70;;;0.50;99.90;;;;;;4683522;30;20042;-79
2022/11/13 06:06:18;;;;;;;9.23;3.80;;;0.40;99.90;;;;;;4684082;30;20072;-79
2022/11/13 06:09:04;;;;;;;18.48;5.05;;;0.40;99.90;;;;;;4683470;30;20405;-79
2022/11/13 06:11:50;;;;;;;82.97;7.05;;;0.40;99.90;;;;;;4683676;30;20042;-79
2022/11/13 06:14:36;;;;;;;12.80;4.32;;;0.30;99.90;;;;;;4684123;30;20065;-79
2022/11/13 06:17:22;;;;;;;13.45;4.38;;;0.30;99.90;;;;;;4668751;30;20065;-79
2022/11/13 06:20:08;;;;;;;41.03;7.65;;;0.30;99.90;;;;;;4683358;30;20058;-79
2022/11/13 06:22:54;;;;;;;10.75;3.63;;;0.40;99.90;;;;;;4682780;30;20061;-79
2022/11/13 06:25:40;;;;;;;4.30;3.90;;;0.30;99.90;;;;;;4683010;30;20073;-79
2022/11/13 06:28:26;;;;;;;4.70;3.65;;;0.20;99.90;;;;;;4682570;30;20053;-78
2022/11/13 06:31:16;;;;;;;9.73;3.47;;;0.20;99.90;;;;;;4683408;30;20438;-79
2022/11/13 06:34:03;;;;;;;5.05;3.53;;;0.20;99.90;;;;;;4683682;30;20058;-79
2022/11/13 06:36:49;;;;;;;7.70;3.55;;;0.10;99.90;;;;;;4682979;30;20066;-79
2022/11/13 06:39:35;;;;;;;6.30;3.60;;;0.20;99.90;;;;;;4683333;30;20115;-79
2022/11/13 06:42:21;;;;;;;11.65;4.50;;;0.10;99.90;;;;;;4683639;30;20057;-78
2022/11/13 06:45:07;;;;;;;10.45;4.25;;;0.10;99.90;;;;;;4682848;30;20057;-78
2022/11/13 06:47:53;;;;;;;4.35;3.75;;;0.10;99.90;;;;;;4682746;30;20426;-79
2022/11/13 06:50:40;;;;;;;6.18;4.60;;;0.20;99.90;;;;;;4682967;30;20076;-79
2022/11/13 06:53:33;;;;;;;11.98;4.78;;;0.20;99.90;;;;;;4683566;30;20533;-79
2022/11/13 06:56:20;;;;;;;3.97;3.67;;;0.20;99.90;;;;;;4682667;30;20058;-80
2022/11/13 06:59:07;;;;;;;5.55;4.65;;;0.30;99.90;;;;;;4682845;30;20046;-79
2022/11/13 07:01:53;;;;;;;13.43;6.07;;;0.30;99.90;;;;;;4683134;30;20054;-79
2022/11/13 07:04:39;;;;;;;5.30;4.68;;;0.40;99.90;;;;;;4682914;30;20058;-79
2022/11/13 07:07:25;;;;;;;13.43;3.90;;;0.40;99.90;;;;;;4682576;30;20046;-79
2022/11/13 07:10:11;;;;;;;4.88;3.97;;;0.40;99.90;;;;;;4681965;30;20050;-79
2022/11/13 07:12:59;;;;;;;4.60;4.18;;;0.40;99.90;;;;;;4666964;30;20057;-79
2022/11/13 07:15:45;;;;;;;4.72;4.43;;;0.30;99.90;;;;;;4680900;30;20049;-78
2022/11/13 07:18:31;;;;;;;4.47;4.07;;;0.40;99.90;;;;;;4669278;30;20084;-78
2022/11/13 07:21:18;;;;;;;6.75;5.55;;;0.40;99.90;;;;;;4680384;30;20062;-78
2022/11/13 07:24:04;;;;;;;34.97;21.83;;;0.40;99.90;;;;;;4682472;30;20106;-79
2022/11/13 07:26:50;;;;;;;27.15;20.85;;;0.40;99.90;;;;;;4668906;30;20065;-79
2022/11/13 07:29:37;;;;;;;40.00;10.30;;;0.40;99.90;;;;;;4681827;30;20057;-78
2022/11/13 07:32:23;;;;;;;20.00;8.93;;;0.50;99.90;;;;;;4669232;30;20073;-79
2022/11/13 07:35:10;;;;;;;57.97;35.15;;;0.50;99.90;;;;;;4682032;30;20497;-79
2022/11/13 07:37:57;;;;;;;21.02;9.63;;;0.60;99.90;;;;;;4669777;30;20057;-79
2022/11/13 07:40:43;;;;;;;9.57;6.47;;;0.80;99.90;;;;;;4682303;30;20057;-78
2022/11/13 07:43:29;;;;;;;26.45;6.93;;;0.90;99.90;;;;;;4681989;30;20099;-79
2022/11/13 07:46:15;;;;;;;31.98;8.05;;;1.00;99.90;;;;;;4682404;30;20528;-79
2022/11/13 07:49:01;;;;;;;32.30;7.97;;;1.10;99.90;;;;;;4682001;30;20062;-79
2022/11/13 07:51:47;;;;;;;23.45;8.27;;;1.20;99.90;;;;;;4682039;30;20673;-79
2022/11/13 07:54:33;;;;;;;35.40;8.95;;;1.30;99.90;;;;;;4682472;30;20406;-79
2022/11/13 07:57:21;;;;;;;36.00;9.52;;;1.40;99.90;;;;;;4666196;30;20054;-79
2022/11/13 08:00:08;;;;;;;59.72;10.88;;;1.50;99.90;;;;;;4691679;30;20061;-79
2022/11/13 08:02:55;;;;;;;52.33;10.75;;;1.60;99.90;;;;;;4699191;30;20049;-79
2022/11/13 08:05:43;;;;;;;47.65;10.60;;;1.60;99.90;;;;;;4699728;30;20362;-79
2022/11/13 08:08:29;;;;;;;66.65;12.68;;;1.60;99.90;;;;;;4698748;30;20053;-79
2022/11/13 08:11:15;;;;;;;70.00;13.55;;;1.70;99.90;;;;;;4699118;30;20065;-79
2022/11/13 08:14:01;;;;;;;49.75;12.82;;;1.80;99.90;;;;;;4699695;30;20057;-79
2022/11/13 08:16:47;;;;;;;62.20;13.55;;;1.90;99.90;;;;;;4698929;30;20058;-79
2022/11/13 08:19:33;;;;;;;32.30;8.65;;;1.90;99.90;;;;;;4698773;30;20053;-78
2022/11/13 08:22:19;;;;;;;52.55;12.85;;;2.00;99.90;;;;;;4699561;30;20068;-79
2022/11/13 08:25:05;;;;;;;62.72;13.25;;;2.20;99.90;;;;;;4697800;30;20057;-79
2022/11/13 08:27:53;;;;;;;58.95;14.27;;;2.20;99.90;;;;;;4700801;30;20502;-79
2022/11/13 08:30:42;;;;;;;45.00;14.50;;;2.30;99.90;;;;;;4702559;30;20494;-79
2022/11/13 08:33:29;;;;;;;53.60;15.93;;;2.30;99.90;;;;;;4702704;30;20041;-79
2022/11/13 08:36:14;;;;;;;31.08;15.85;;;2.40;99.90;;;;;;4702308;30;20049;-79
2022/11/13 08:39:00;;;;;;;36.17;15.88;;;2.50;99.90;;;;;;4702582;30;20050;-79
2022/11/13 08:41:47;;;;;;;40.38;18.88;;;2.60;99.90;;;;;;4689658;30;20056;-79
2022/11/13 08:44:33;;;;;;;40.38;14.13;;;2.70;99.90;;;;;;4702748;30;20078;-79
2022/11/13 08:47:19;;;;;;;33.67;14.98;;;2.70;99.90;;;;;;4702141;30;20053;-79
2022/11/13 08:50:05;;;;;;;7.70;6.50;;;2.80;99.90;;;;;;4702797;30;20064;-80
2022/11/13 08:52:55;;;;;;;27.27;17.20;;;2.90;99.90;;;;;;4702192;30;20501;-80
2022/11/13 08:55:41;;;;;;;33.10;15.68;;;2.90;99.90;;;;;;4702276;30;20409;-79
2022/11/13 08:58:27;;;;;;;17.50;9.30;;;3.10;99.90;;;;;;4689244;30;20501;-79
2022/11/13 09:01:15;;;;;;;24.70;16.70;;;3.10;99.90;;;;;;4685061;30;20512;-78
2022/11/13 09:04:01;;;;;;;24.15;15.27;;;3.10;99.90;;;;;;4696993;30;20066;-79
2022/11/13 09:06:47;;;;;;;21.77;14.40;;;3.10;99.90;;;;;;4685959;30;20068;-79
2022/11/13 09:09:33;;;;;;;26.38;17.33;;;3.30;99.90;;;;;;4702597;30;20053;-79
2022/11/13 09:12:20;;;;;;;27.27;15.85;;;3.60;99.90;;;;;;4684368;30;20046;-79
2022/11/13 09:15:06;;;;;;;25.48;16.20;;;3.80;99.90;;;;;;4684672;30;20057;-80
2022/11/13 09:18:00;;;;;;;8.32;7.47;;;3.80;99.90;;;;;;4684847;30;20072;-80
2022/11/13 09:20:46;;;;;;;22.67;15.68;;;3.90;99.90;;;;;;4695359;30;20050;-79
2022/11/13 09:23:32;;;;;;;25.33;18.48;;;3.80;99.90;;;;;;4701718;30;20042;-79
2022/11/13 09:26:18;;;;;;;31.15;18.70;;;3.90;99.90;;;;;;4701661;30;20057;-79
2022/11/13 09:29:04;;;;;;;56.17;34.53;;;4.10;99.90;;;;;;4700793;30;20418;-79
2022/11/13 09:31:50;;;;;;;46.75;26.50;;;4.30;99.90;;;;;;4701426;30;20046;-79
2022/11/13 09:34:36;;;;;;;30.42;17.25;;;4.50;99.90;;;;;;4701794;30;20064;-79
2022/11/13 09:37:21;;;;;;;31.60;19.90;;;4.70;99.90;;;;;;4685601;30;20045;-79
2022/11/13 09:40:21;;;;;;;32.60;22.40;;;4.80;99.90;;;;;;4700555;30;20513;-79
2022/11/13 09:43:19;;;;;;;25.85;15.68;;;4.80;99.90;;;;;;4701123;30;20504;-79
2022/11/13 09:46:16;;;;;;;20.67;15.10;;;4.70;99.90;;;;;;4701851;30;20061;-79
2022/11/13 09:49:14;;;;;;;28.30;17.83;;;4.90;99.90;;;;;;4685812;30;20046;-79
2022/11/13 09:52:09;;;;;;;23.98;16.10;;;5.00;99.90;;;;;;4673883;30;20049;-79
2022/11/13 09:54:55;;;;;;;17.40;11.63;;;5.00;99.90;;;;;;4685696;30;20049;-80
2022/11/13 09:58:09;;;;;;;21.38;11.02;;;5.10;99.90;;;;;;4701326;30;20503;-80
2022/11/13 10:00:57;;;;;;;18.63;14.88;;;4.80;99.90;;;;;;4670582;30;20061;-79
2022/11/13 10:03:52;;;;;;;18.35;11.68;;;4.60;99.90;;;;;;4684036;30;20054;-79
2022/11/13 10:07:12;;;;;;;21.60;15.10;;;4.70;99.90;;;;;;4682474;30;20054;-79
2022/11/13 10:10:04;;;;;;;22.48;13.63;;;4.90;99.90;;;;;;4668941;30;20070;-80
2022/11/13 10:12:53;;;;;;;21.75;12.48;;;4.90;99.90;;;;;;4668082;30;20050;-80
2022/11/13 10:15:43;;;;;;;15.70;11.27;;;5.00;99.90;;;;;;4682784;30;20057;-80
2022/11/13 10:18:37;;;;;;;22.08;12.65;;;4.90;99.90;;;;;;4684058;30;20054;-80
2022/11/13 10:21:36;;;;;;;17.20;13.13;;;5.10;99.90;;;;;;4652069;30;20055;-80
2022/11/13 10:24:32;;;;;;;16.52;11.65;;;5.40;99.90;;;;;;4666771;30;20054;-80
2022/11/13 10:27:18;;;;;;;15.05;11.00;;;5.50;99.90;;;;;;4666139;30;20059;-80
2022/11/13 10:30:12;;;;;;;17.25;13.43;;;5.50;99.90;;;;;;4666932;30;20054;-80
2022/11/13 10:33:05;;;;;;;13.23;9.60;;;5.50;99.90;;;;;;4666961;30;20415;-80
2022/11/13 10:36:02;;;;;;;15.48;11.00;;;5.70;99.90;;;;;;4683529;30;20054;-80
2022/11/13 10:38:59;;;;;;;15.02;11.77;;;5.60;99.90;;;;;;4683572;30;20062;-80
2022/11/13 10:41:51;;;;;;;18.73;12.57;;;5.70;99.90;;;;;;4683882;30;20061;-80
2022/11/13 10:44:36;;;;;;;22.77;12.30;;;5.90;99.90;;;;;;4683432;30;20418;-80
2022/11/13 10:47:25;;;;;;;16.27;12.18;;;6.10;99.90;;;;;;4667399;30;20804;-80
2022/11/13 10:50:32;;;;;;;13.07;8.38;;;6.10;99.90;;;;;;4667250;30;20073;-80
2022/11/13 10:53:19;;;;;;;14.27;8.73;;;6.10;99.90;;;;;;4653619;30;20707;-80
2022/11/13 10:56:32;;;;;;;18.35;11.07;;;6.20;99.90;;;;;;4681507;30;20057;-80
2022/11/13 10:59:19;;;;;;;12.63;9.25;;;6.20;99.90;;;;;;4682728;30;20057;-80
2022/11/13 11:02:25;;;;;;;14.32;9.63;;;6.40;99.90;;;;;;4670406;30;20061;-80
2022/11/13 11:05:22;;;;;;;12.57;8.93;;;6.60;99.90;;;;;;4682346;30;20054;-79
2022/11/13 11:08:09;;;;;;;14.50;11.07;;;6.80;99.90;;;;;;4682596;30;20494;-80
2022/11/13 11:14:37;;;;;;;12.10;9.00;;;7.10;99.90;;;;;;4666266;30;20055;-80
2022/11/13 11:17:49;;;;;;;14.77;9.02;;;7.40;99.90;;;;;;4650916;30;20054;-80
2022/11/13 11:20:40;;;;;;;;;;;7.60;99.90;;;;;;4707350;30;20064;-80
2022/11/13 11:24:06;;;;;;;11.80;7.32;;;7.60;99.90;;;;;;4716490;30;19927;-80
2022/11/13 11:27:04;;;;;;;15.20;10.70;;;7.80;99.90;;;;;;4717131;30;20053;-80
2022/11/13 11:30:12;;;;;;;11.02;9.85;;;8.00;99.90;;;;;;4689304;30;20057;-81
2022/11/13 11:33:22;;;;;;;7.72;5.35;;;8.20;99.90;;;;;;4699900;30;20053;-81
2022/11/13 11:36:10;;;;;;;5.70;4.22;;;8.20;99.90;;;;;;4699570;30;20058;-81
2022/11/13 11:39:09;;;;;;;9.25;7.25;;;8.20;99.90;;;;;;4672517;30;20074;-81
2022/11/13 11:42:09;;;;;;;6.07;5.45;;;8.30;99.90;;;;;;4680944;30;20060;-78
2022/11/13 11:45:15;;;;;;;7.13;6.35;;;8.20;99.90;;;;;;4685952;30;20057;-81
2022/11/13 11:48:04;;;;;;;7.97;6.70;;;8.30;99.90;;;;;;4682526;30;20063;-81
2022/11/13 11:51:02;;;;;;;7.55;6.18;;;8.40;99.90;;;;;;4679573;30;20053;-80
2022/11/13 11:54:03;;;;;;;10.90;5.88;;;8.50;99.90;;;;;;4699782;30;20061;-80
2022/11/13 11:56:56;;;;;;;6.75;6.05;;;8.70;99.90;;;;;;4683810;30;20053;-81
2022/11/13 12:00:05;;;;;;;7.75;6.72;;;8.80;99.90;;;;;;4692140;30;20061;-81
2022/11/13 12:03:28;;;;;;;6.82;6.13;;;8.80;99.90;;;;;;4681801;30;20050;-80
2022/11/13 12:06:31;;;;;;;7.05;5.57;;;8.80;99.90;;;;;;4665979;30;20065;-80
2022/11/13 12:09:34;;;;;;;9.63;6.47;;;8.80;99.90;;;;;;4666634;30;20058;-80
2022/11/13 12:12:41;;;;;;;12.13;7.68;;;8.80;99.90;;;;;;4681781;30;20585;-80
2022/11/13 12:15:50;;;;;;;6.10;5.38;;;8.80;99.90;;;;;;4663485;30;20538;-80
2022/11/13 12:19:00;;;;;;;8.85;6.35;;;8.90;99.90;;;;;;4650001;30;20063;-80
2022/11/13 12:21:55;;;;;;;9.27;7.25;;;9.00;99.90;;;;;;4638909;30;20054;-81
2022/11/13 12:25:04;;;;;;;10.95;9.45;;;9.20;99.90;;;;;;4649425;30;20069;-81
2022/11/13 12:28:15;;;;;;;8.10;6.05;;;9.40;99.90;;;;;;4649300;30;20057;-81
2022/11/13 12:31:24;;;;;;;6.32;4.57;;;9.40;99.90;;;;;;4663577;30;20065;-80
2022/11/13 12:34:25;;;;;;;8.25;7.25;;;9.40;99.90;;;;;;4658940;30;20062;-80
2022/11/13 12:37:16;;;;;;;4.30;4.00;;;9.50;99.90;;;;;;4666415;30;20057;-80
2022/11/13 12:40:35;;;;;;;7.45;6.28;;;9.50;99.90;;;;;;4669059;30;20053;-80
2022/11/13 12:43:40;;;;;;;9.18;7.30;;;9.50;99.90;;;;;;4666315;30;20069;-80
2022/11/13 12:46:35;;;;;;;6.78;6.13;;;9.50;99.90;;;;;;4682274;30;20068;-80
2022/11/13 12:49:33;;;;;;;7.85;7.07;;;9.60;99.90;;;;;;4652033;30;20505;-81
2022/11/13 12:52:23;;;;;;;9.68;7.22;;;9.90;99.90;;;;;;4649045;30;20059;-80
2022/11/13 12:55:36;;;;;;;8.95;7.88;;;10.00;99.90;;;;;;4664483;30;20072;-80
2022/11/13 12:58:31;;;;;;;7.93;5.95;;;10.20;99.90;;;;;;4664714;30;20506;-80
2022/11/13 13:01:19;;;;;;;7.68;6.88;;;10.20;99.90;;;;;;4648911;30;20398;-80
2022/11/13 13:04:37;;;;;;;8.38;7.47;;;10.10;99.90;;;;;;4664295;30;20053;-80
2022/11/13 13:07:39;;;;;;;7.43;6.07;;;10.20;99.90;;;;;;4664154;30;20058;-80
2022/11/13 13:10:24;;;;;;;8.82;5.90;;;10.20;99.90;;;;;;4674501;30;20066;-80
2022/11/13 13:13:34;;;;;;;10.23;7.50;;;10.10;99.90;;;;;;4681663;30;20054;-80
2022/11/13 13:16:28;;;;;;;11.60;7.88;;;10.10;99.90;;;;;;4666174;30;20046;-83
2022/11/13 13:19:29;;;;;;;10.27;7.20;;;10.10;99.90;;;;;;4653633;30;20066;-81
2022/11/13 13:22:31;;;;;;;8.70;7.65;;;10.20;99.90;;;;;;4667913;30;20066;-80
2022/11/13 13:25:30;;;;;;;9.55;6.97;;;10.30;99.90;;;;;;4668097;30;20088;-78
2022/11/13 13:28:21;;;;;;;12.93;8.30;;;10.30;99.90;;;;;;4683074;30;20050;-80
2022/11/13 13:31:30;;;;;;;12.90;8.13;;;10.40;99.90;;;;;;4668942;30;20520;-80
2022/11/13 13:34:31;;;;;;;11.50;7.75;;;10.40;99.90;;;;;;4671468;30;20417;-81
2022/11/13 13:37:51;;;;;;;8.65;7.75;;;10.40;99.90;;;;;;4668906;30;20413;-80
2022/11/13 13:40:48;;;;;;;10.55;7.10;;;10.50;99.90;;;;;;4684098;30;20061;-80
2022/11/13 13:43:49;;;;;;;10.65;8.77;;;10.50;99.90;;;;;;4670359;30;20046;-81
2022/11/13 13:46:35;;;;;;;;;;;10.60;99.90;;;;;;4684727;30;20057;-80
2022/11/13 13:49:27;;;;;;;6.70;6.00;;;10.60;99.90;;;;;;4669075;30;19927;-81
2022/11/13 13:52:14;;;;;;;;;;;10.60;99.90;;;;;;4667148;30;20073;-80
2022/11/13 13:55:02;;;;;;;10.68;8.95;;;10.60;99.90;;;;;;4665346;30;20367;-80
2022/11/13 13:57:48;;;;;;;8.23;7.03;;;10.70;99.90;;;;;;4667105;30;20411;-80
2022/11/13 14:00:34;;;;;;;10.82;8.15;;;10.70;99.90;;;;;;4666678;30;20054;-80
2022/11/13 14:03:38;;;;;;;11.75;7.13;;;10.70;99.90;;;;;;4680129;30;20042;-80
2022/11/13 14:06:24;;;;;;;10.43;6.18;;;10.70;99.90;;;;;;4684089;30;20061;-80
2022/11/13 14:09:17;;;;;;;8.25;7.35;;;10.70;99.90;;;;;;4683230;30;20058;-80
2022/11/13 14:12:17;;;;;;;10.68;7.72;;;10.70;99.90;;;;;;4683581;30;20430;-81
2022/11/13 14:15:14;;;;;;;12.30;7.35;;;10.70;99.90;;;;;;4683649;30;20050;-80
2022/11/13 14:18:12;;;;;;;10.45;6.63;;;10.70;99.90;;;;;;4670817;30;20058;-80
2022/11/13 14:21:19;;;;;;;9.95;6.97;;;10.60;99.90;;;;;;4683019;30;20063;-81
2022/11/13 14:24:08;;;;;;;;;;;10.60;99.90;;;;;;4670999;30;20053;-81
2022/11/13 14:26:55;;;;;;;8.52;6.25;;;10.50;99.90;;;;;;4683383;30;19935;-80
2022/11/13 14:30:01;;;;;;;8.65;5.78;;;10.40;99.90;;;;;;4683990;30;20062;-80
2022/11/13 14:32:47;;;;;;;8.57;7.78;;;10.30;99.90;;;;;;4655949;30;20061;-80
2022/11/13 14:35:34;;;;;;;10.10;5.90;;;10.30;99.90;;;;;;4653637;30;20051;-80
2022/11/13 14:38:32;;;;;;;9.07;5.10;;;10.20;99.90;;;;;;4651010;30;20066;-81
2022/11/13 14:41:45;;;;;;;7.93;6.53;;;10.10;99.90;;;;;;4652153;30;20055;-80
2022/11/13 14:44:33;;;;;;;7.70;6.40;;;10.10;99.90;;;;;;4666150;30;20414;-80
2022/11/13 14:47:35;;;;;;;7.20;6.43;;;10.10;99.90;;;;;;4664691;30;20054;-80
2022/11/13 14:50:33;;;;;;;8.38;7.18;;;10.00;99.90;;;;;;4666653;30;20061;-80
2022/11/13 14:53:27;;;;;;;9.63;7.10;;;9.90;99.90;;;;;;4650656;30;20058;-80